createdAt,value
2023-03-07T00:02:21.238Z,8.27
2023-03-07T00:07:16.181Z,7.71
2023-03-07T00:09:44.001Z,7.87
2023-03-07T00:12:12.275Z,8.00
2023-03-07T00:14:40.254Z,7.68
2023-03-07T00:17:09.633Z,7.78
2023-03-07T00:19:37.496Z,7.75
2023-03-07T00:22:05.619Z,8.37
2023-03-07T00:24:33.464Z,8.12
2023-03-07T00:27:01.290Z,8.16
2023-03-07T00:29:29.090Z,8.38
2023-03-07T00:31:56.984Z,8.12
2023-03-07T00:34:26.248Z,8.23
2023-03-07T00:36:54.011Z,8.05
2023-03-07T00:39:21.918Z,7.89
2023-03-07T00:41:50.061Z,8.53
2023-03-07T00:44:17.850Z,8.37
2023-03-07T00:46:45.662Z,8.26
2023-03-07T00:49:13.578Z,8.47
2023-03-07T00:51:42.950Z,8.05
2023-03-07T00:54:11.073Z,8.33
2023-03-07T00:56:38.875Z,8.14
2023-03-07T00:59:06.850Z,7.81
2023-03-07T01:01:34.813Z,8.31
2023-03-07T01:04:02.627Z,8.77
2023-03-07T01:06:32.537Z,8.50
2023-03-07T01:09:04.848Z,8.69
2023-03-07T01:11:34.728Z,4.54
2023-03-07T01:14:04.406Z,2.94
2023-03-07T01:16:35.888Z,2.75
2023-03-07T01:19:05.562Z,2.73
2023-03-07T01:21:36.400Z,2.78
2023-03-07T01:24:07.138Z,2.72
2023-03-07T01:26:35.920Z,3.67
2023-03-07T01:29:05.844Z,3.08
2023-03-07T01:31:37.470Z,2.85
2023-03-07T01:34:06.104Z,2.82
2023-03-07T01:36:37.106Z,6.24
2023-03-07T01:39:14.290Z,3.12
2023-03-07T01:41:47.566Z,6.92
2023-03-07T01:44:19.176Z,2.91
2023-03-07T01:46:50.040Z,3.03
2023-03-07T01:49:30.931Z,5.31
2023-03-07T01:52:06.274Z,4.94
2023-03-07T01:54:40.388Z,4.80
2023-03-07T01:57:09.048Z,5.43
2023-03-07T01:59:41.476Z,5.21
2023-03-07T02:02:12.952Z,5.57
2023-03-07T02:04:47.079Z,5.30
2023-03-07T02:07:16.704Z,5.23
2023-03-07T02:09:48.825Z,4.52
2023-03-07T02:12:16.885Z,5.16
2023-03-07T02:14:46.541Z,3.58
2023-03-07T02:17:14.512Z,3.45
2023-03-07T02:19:54.706Z,3.38
2023-03-07T02:22:22.608Z,3.32
2023-03-07T02:24:57.049Z,3.29
2023-03-07T02:27:28.038Z,4.36
2023-03-07T02:29:56.048Z,4.10
2023-03-07T02:32:24.228Z,4.60
2023-03-07T02:34:52.128Z,4.71
2023-03-07T02:37:26.465Z,3.53
2023-03-07T02:39:57.498Z,3.11
2023-03-07T02:42:31.457Z,3.61
2023-03-07T02:45:10.009Z,3.36
2023-03-07T02:47:38.981Z,3.67
2023-03-07T02:50:08.254Z,4.70
2023-03-07T02:52:39.457Z,5.15
2023-03-07T02:55:08.655Z,4.57
2023-03-07T02:57:41.215Z,4.86
2023-03-07T03:00:12.036Z,5.00
2023-03-07T03:02:40.052Z,4.65
2023-03-07T03:05:08.737Z,3.86
2023-03-07T03:07:36.612Z,4.35
2023-03-07T03:10:05.181Z,4.17
2023-03-07T03:12:33.889Z,4.04
2023-03-07T03:15:04.371Z,4.01
2023-03-07T03:17:33.913Z,4.41
2023-03-07T03:20:01.796Z,3.63
2023-03-07T03:22:30.886Z,3.63
2023-03-07T03:24:58.888Z,3.55
2023-03-07T03:27:26.768Z,3.77
2023-03-07T03:29:55.147Z,3.69
2023-03-07T03:32:24.854Z,4.04
2023-03-07T03:34:52.720Z,3.96
2023-03-07T03:37:20.558Z,5.63
2023-03-07T03:39:48.491Z,5.28
2023-03-07T03:42:16.327Z,4.88
2023-03-07T03:44:44.161Z,4.99
2023-03-07T03:47:13.272Z,4.91
2023-03-07T03:49:42.622Z,5.23
2023-03-07T03:52:11.157Z,5.54
2023-03-07T03:54:39.042Z,5.28
2023-03-07T03:57:07.764Z,4.86
2023-03-07T03:59:35.503Z,5.17
2023-03-07T04:02:03.428Z,4.70
2023-03-07T04:04:31.279Z,4.95
2023-03-07T04:07:00.428Z,4.71
2023-03-07T04:09:28.238Z,4.45
2023-03-07T04:11:56.019Z,4.47
2023-03-07T04:14:24.096Z,4.53
2023-03-07T04:16:52.616Z,4.61
2023-03-07T04:19:22.020Z,5.00
2023-03-07T04:21:50.399Z,4.97
2023-03-07T04:24:19.944Z,4.92
2023-03-07T04:26:48.163Z,4.88
2023-03-07T04:29:16.582Z,4.91
2023-03-07T04:31:51.350Z,4.65
2023-03-07T04:34:19.199Z,4.77
2023-03-07T04:36:46.970Z,4.70
2023-03-07T04:39:15.089Z,4.61
2023-03-07T04:41:44.392Z,4.63
2023-03-07T04:44:18.522Z,4.28
2023-03-07T04:46:46.365Z,4.59
2023-03-07T04:49:14.218Z,4.69
2023-03-07T04:51:44.050Z,4.58
2023-03-07T04:54:23.605Z,4.61
2023-03-07T04:56:53.117Z,4.80
2023-03-07T04:59:21.520Z,4.85
2023-03-07T05:01:49.400Z,4.70
2023-03-07T05:04:17.691Z,5.06
2023-03-07T05:06:45.492Z,5.15
2023-03-07T05:09:13.881Z,4.90
2023-03-07T05:11:41.781Z,5.37
2023-03-07T05:14:10.966Z,5.35
2023-03-07T05:16:38.739Z,5.18
2023-03-07T05:19:06.906Z,4.94
2023-03-07T05:21:34.915Z,5.29
2023-03-07T05:24:03.606Z,5.09
2023-03-07T05:26:33.293Z,4.95
2023-03-07T05:29:01.211Z,5.02
2023-03-07T05:31:30.750Z,5.34
2023-03-07T05:33:58.878Z,4.80
2023-03-07T05:36:26.807Z,5.25
2023-03-07T05:38:56.346Z,4.90
2023-03-07T05:41:25.096Z,4.92
2023-03-07T05:43:54.833Z,4.94
2023-03-07T05:46:23.433Z,4.78
2023-03-07T05:48:52.780Z,5.33
2023-03-07T05:51:20.649Z,5.70
2023-03-07T05:53:49.155Z,5.08
2023-03-07T05:56:17.265Z,5.18
2023-03-07T05:58:45.357Z,5.40
2023-03-07T06:01:13.468Z,5.33
2023-03-07T06:03:42.907Z,4.99
2023-03-07T06:06:13.009Z,4.81
2023-03-07T06:08:41.575Z,5.00
2023-03-07T06:11:11.133Z,4.96
2023-03-07T06:13:40.209Z,4.70
2023-03-07T06:16:08.541Z,4.76
2023-03-07T06:18:39.106Z,4.14
2023-03-07T06:21:09.079Z,4.93
2023-03-07T06:23:44.001Z,5.35
2023-03-07T06:26:15.044Z,3.93
2023-03-07T06:28:45.422Z,5.24
2023-03-07T06:31:17.181Z,5.02
2023-03-07T06:33:45.957Z,5.14
2023-03-07T06:36:17.117Z,5.32
2023-03-07T06:38:49.801Z,4.85
2023-03-07T06:41:18.001Z,4.46
2023-03-07T06:43:46.994Z,4.77
2023-03-07T06:46:16.852Z,5.37
2023-03-07T06:48:45.191Z,6.07
2023-03-07T06:51:17.507Z,4.77
2023-03-07T06:53:47.201Z,5.27
2023-03-07T06:56:16.639Z,4.76
2023-03-07T06:58:45.318Z,4.68
2023-03-07T07:01:18.901Z,4.47
2023-03-07T07:03:48.975Z,4.34
2023-03-07T07:06:17.541Z,4.49
2023-03-07T07:08:45.325Z,4.28
2023-03-07T07:11:13.668Z,4.63
2023-03-07T07:13:43.230Z,4.31
2023-03-07T07:16:12.941Z,4.86
2023-03-07T07:18:40.915Z,6.83
2023-03-07T07:21:09.747Z,4.29
2023-03-07T07:23:37.675Z,4.65
2023-03-07T07:26:06.867Z,4.40
2023-03-07T07:28:35.789Z,4.59
2023-03-07T07:31:06.801Z,4.79
2023-03-07T07:33:35.519Z,4.52
2023-03-07T07:36:04.160Z,4.78
2023-03-07T07:38:32.059Z,4.75
2023-03-07T07:41:02.305Z,4.99
2023-03-07T07:43:30.656Z,5.08
2023-03-07T07:46:09.932Z,4.86
2023-03-07T07:48:38.066Z,4.76
2023-03-07T07:51:06.652Z,4.75
2023-03-07T07:53:37.438Z,5.34
2023-03-07T07:56:05.768Z,5.87
2023-03-07T07:58:33.745Z,5.02
2023-03-07T08:01:15.041Z,5.62
2023-03-07T08:03:43.003Z,4.89
2023-03-07T08:06:11.258Z,5.21
2023-03-07T08:08:39.312Z,5.15
2023-03-07T08:11:07.306Z,5.49
2023-03-07T08:13:35.080Z,5.31
2023-03-07T08:16:10.359Z,4.76
2023-03-07T08:18:39.548Z,5.57
2023-03-07T08:21:07.674Z,5.38
2023-03-07T08:23:35.533Z,5.28
2023-03-07T08:26:06.106Z,5.54
2023-03-07T08:28:34.586Z,5.33
2023-03-07T08:31:07.836Z,5.80
2023-03-07T08:33:35.677Z,5.22
2023-03-07T08:36:05.392Z,5.12
2023-03-07T08:38:33.783Z,5.86
2023-03-07T08:41:02.664Z,5.72
2023-03-07T08:43:30.865Z,5.37
2023-03-07T08:45:58.689Z,6.58
2023-03-07T08:48:27.283Z,6.22
2023-03-07T08:50:55.455Z,6.19
2023-03-07T08:53:24.824Z,6.30
2023-03-07T08:55:52.588Z,6.63
2023-03-07T08:58:20.388Z,6.55
2023-03-07T09:00:48.161Z,6.21
2023-03-07T09:03:16.035Z,6.34
2023-03-07T09:05:43.890Z,6.63
2023-03-07T09:08:11.659Z,6.74
2023-03-07T09:10:40.806Z,6.69
2023-03-07T09:13:08.612Z,6.69
2023-03-07T09:15:39.773Z,6.19
2023-03-07T09:18:07.598Z,6.57
2023-03-07T09:20:35.378Z,6.33
2023-03-07T09:23:03.193Z,6.33
2023-03-07T09:25:31.216Z,6.20
2023-03-07T09:28:00.484Z,6.19
2023-03-07T09:30:28.875Z,6.40
2023-03-07T09:32:56.940Z,5.54
2023-03-07T09:35:25.142Z,5.74
2023-03-07T09:37:53.020Z,5.84
2023-03-07T09:40:24.406Z,5.77
2023-03-07T09:43:00.607Z,5.64
2023-03-07T09:45:45.348Z,5.38
2023-03-07T09:48:52.442Z,5.43
2023-03-07T09:51:23.870Z,5.15
2023-03-07T09:53:56.118Z,5.34
2023-03-07T09:56:26.324Z,5.02
2023-03-07T09:59:04.868Z,5.45
2023-03-07T10:01:38.797Z,4.28
2023-03-07T10:04:13.904Z,5.83
2023-03-07T10:06:43.626Z,5.62
2023-03-07T10:09:18.522Z,6.09
2023-03-07T10:12:05.033Z,6.00
2023-03-07T10:14:49.363Z,6.04
2023-03-07T10:17:30.896Z,5.90
2023-03-07T10:20:08.510Z,5.94
2023-03-07T10:22:44.630Z,6.19
2023-03-07T10:25:25.586Z,5.65
2023-03-07T10:28:00.275Z,6.15
2023-03-07T10:30:32.225Z,5.82
2023-03-07T10:33:02.576Z,6.11
2023-03-07T10:35:41.091Z,6.17
2023-03-07T10:38:19.920Z,5.75
2023-03-07T10:40:51.550Z,5.12
2023-03-07T10:43:25.662Z,5.19
2023-03-07T10:45:59.663Z,5.67
2023-03-07T10:48:31.082Z,5.65
2023-03-07T10:51:07.978Z,6.10
2023-03-07T10:53:38.833Z,5.82
2023-03-07T10:56:12.317Z,6.02
2023-03-07T10:58:41.384Z,5.92
2023-03-07T11:01:20.545Z,5.67
2023-03-07T11:03:54.921Z,5.46
2023-03-07T11:06:32.272Z,5.48
2023-03-07T11:09:10.040Z,5.18
2023-03-07T11:11:38.970Z,5.59
2023-03-07T11:14:08.748Z,5.75
2023-03-07T11:16:50.834Z,5.68
2023-03-07T11:19:39.594Z,5.09
2023-03-07T11:22:20.533Z,5.67
2023-03-07T11:24:55.693Z,5.86
2023-03-07T11:27:27.379Z,5.65
2023-03-07T11:30:19.118Z,5.81
2023-03-07T11:32:53.049Z,6.06
2023-03-07T11:35:25.731Z,5.81
2023-03-07T11:38:04.412Z,5.65
2023-03-07T11:40:40.141Z,5.68
2023-03-07T11:43:20.609Z,5.23
2023-03-07T11:45:55.350Z,5.37
2023-03-07T11:48:46.468Z,5.68
2023-03-07T11:51:41.337Z,5.92
2023-03-07T11:54:20.744Z,5.70
2023-03-07T11:56:52.722Z,5.95
2023-03-07T11:59:50.059Z,5.75
2023-03-07T12:02:43.975Z,4.90
2023-03-07T12:05:26.841Z,5.46
2023-03-07T12:08:06.422Z,5.79
2023-03-07T12:10:49.914Z,5.46
2023-03-07T12:13:31.959Z,5.76
2023-03-07T12:16:11.525Z,5.88
2023-03-07T12:18:54.372Z,6.10
2023-03-07T12:21:38.908Z,5.82
2023-03-07T12:24:16.995Z,6.19
2023-03-07T12:26:53.267Z,5.79
2023-03-07T12:29:32.480Z,5.59
2023-03-07T12:32:04.643Z,5.26
2023-03-07T12:34:37.800Z,5.56
2023-03-07T12:37:09.162Z,5.61
2023-03-07T12:39:50.768Z,5.85
2023-03-07T12:42:31.336Z,5.24
2023-03-07T12:45:00.908Z,6.09
2023-03-07T12:47:34.158Z,5.81
2023-03-07T12:50:10.075Z,6.29
2023-03-07T12:52:44.297Z,5.88
2023-03-07T12:55:25.626Z,5.69
2023-03-07T12:58:03.039Z,5.83
2023-03-07T13:00:31.882Z,6.06
2023-03-07T13:03:02.440Z,6.45
2023-03-07T13:05:31.906Z,6.08
2023-03-07T13:08:00.439Z,6.51
2023-03-07T13:10:31.356Z,5.88
2023-03-07T13:12:59.151Z,5.54
2023-03-07T13:16:00.194Z,5.34
2023-03-07T13:18:31.092Z,6.22
2023-03-07T13:21:11.269Z,6.33
2023-03-07T13:23:39.151Z,5.98
2023-03-07T13:26:12.066Z,5.04
2023-03-07T13:28:48.714Z,4.40
2023-03-07T13:31:45.802Z,6.73
2023-03-07T13:34:51.348Z,4.61
2023-03-07T13:37:52.416Z,4.45
2023-03-07T13:40:53.314Z,4.87
2023-03-07T13:43:58.560Z,5.90
2023-03-07T13:46:54.188Z,4.63
2023-03-07T13:49:40.793Z,5.33
2023-03-07T13:52:34.119Z,4.99
2023-03-07T13:55:04.620Z,4.30
2023-03-07T13:57:41.707Z,4.14
2023-03-07T14:00:51.704Z,4.08
2023-03-07T14:03:29.944Z,4.01
2023-03-07T14:06:00.911Z,4.67
2023-03-07T14:08:34.899Z,4.44
2023-03-07T14:11:03.123Z,4.58
2023-03-07T14:14:02.186Z,7.85
2023-03-07T14:16:51.879Z,7.79
2023-03-07T14:19:45.322Z,7.88
2023-03-07T14:22:23.288Z,8.70
2023-03-07T14:25:07.928Z,8.40
2023-03-07T14:27:51.162Z,8.15
2023-03-07T14:30:20.432Z,8.56
2023-03-07T14:32:49.857Z,8.17
2023-03-07T14:35:33.921Z,7.93
2023-03-07T14:38:02.023Z,9.68
2023-03-07T14:40:38.665Z,8.82
2023-03-07T14:43:25.193Z,10.19
2023-03-07T14:45:59.311Z,7.30
2023-03-07T14:48:47.236Z,4.49
2023-03-07T14:51:18.517Z,3.93
2023-03-07T14:53:46.806Z,4.94
2023-03-07T14:56:22.724Z,5.47
2023-03-07T14:58:54.062Z,4.24
2023-03-07T15:01:21.909Z,4.48
2023-03-07T15:03:53.026Z,4.04
2023-03-07T15:06:23.824Z,3.48
2023-03-07T15:08:53.130Z,3.68
2023-03-07T15:11:32.848Z,3.63
2023-03-07T15:14:05.974Z,3.99
2023-03-07T15:16:37.796Z,3.94
2023-03-07T15:19:13.505Z,4.14
2023-03-07T15:21:45.392Z,5.08
2023-03-07T15:24:19.282Z,4.04
2023-03-07T15:26:51.696Z,3.92
2023-03-07T15:29:21.814Z,3.68
2023-03-07T15:31:51.546Z,3.66
2023-03-07T15:34:28.765Z,3.67
2023-03-07T15:36:56.676Z,5.47
2023-03-07T15:39:31.230Z,5.52
2023-03-07T15:42:04.444Z,5.32
2023-03-07T15:44:33.082Z,5.52
2023-03-07T15:47:06.165Z,4.79
2023-03-07T15:49:43.167Z,5.01
2023-03-07T15:52:22.367Z,5.30
2023-03-07T15:54:52.520Z,5.49
2023-03-07T15:57:23.009Z,4.95
2023-03-07T15:59:55.052Z,5.10
2023-03-07T16:02:41.275Z,6.25
2023-03-07T16:05:30.014Z,4.91
2023-03-07T16:07:58.918Z,4.82
2023-03-07T16:10:29.338Z,5.08
2023-03-07T16:12:57.385Z,5.91
2023-03-07T16:15:26.039Z,6.42
2023-03-07T16:17:56.446Z,6.04
2023-03-07T16:20:26.752Z,5.88
2023-03-07T16:22:56.492Z,3.94
2023-03-07T16:25:26.951Z,4.50
2023-03-07T16:27:56.624Z,4.61
2023-03-07T16:30:27.058Z,4.77
2023-03-07T16:32:54.969Z,5.96
2023-03-07T16:35:25.000Z,6.31
2023-03-07T16:37:53.123Z,6.60
2023-03-07T16:40:23.121Z,5.52
2023-03-07T16:42:51.552Z,3.78
2023-03-07T16:45:23.068Z,5.32
2023-03-07T16:47:53.309Z,5.00
2023-03-07T16:50:24.087Z,3.70
2023-03-07T16:52:51.936Z,3.01
2023-03-07T16:55:20.261Z,3.95
2023-03-07T16:57:52.295Z,3.51
2023-03-07T17:00:22.429Z,3.63
2023-03-07T17:02:52.898Z,3.67
2023-03-07T17:05:25.386Z,3.27
2023-03-07T17:07:53.804Z,3.29
2023-03-07T17:10:22.350Z,3.23
2023-03-07T17:12:53.539Z,3.41
2023-03-07T17:15:26.230Z,3.38
2023-03-07T17:17:54.794Z,3.35
2023-03-07T17:20:22.628Z,3.24
2023-03-07T17:22:50.532Z,2.74
2023-03-07T17:25:18.488Z,3.23
2023-03-07T17:27:51.044Z,2.97
2023-03-07T17:30:22.144Z,3.00
2023-03-07T17:32:50.103Z,3.11
2023-03-07T17:35:18.510Z,3.10
2023-03-07T17:37:47.943Z,3.00
2023-03-07T17:40:16.126Z,4.73
2023-03-07T17:42:44.979Z,4.81
2023-03-07T17:45:14.502Z,3.13
2023-03-07T17:47:43.657Z,4.65
2023-03-07T17:50:12.704Z,4.82
2023-03-07T17:52:40.546Z,4.83
2023-03-07T17:55:12.086Z,4.43
2023-03-07T17:57:39.899Z,4.33
2023-03-07T18:00:13.172Z,3.50
2023-03-07T18:02:43.715Z,3.23
2023-03-07T18:05:12.885Z,2.99
2023-03-07T18:07:41.185Z,4.79
2023-03-07T18:10:10.595Z,4.56
2023-03-07T18:12:39.257Z,4.33
2023-03-07T18:15:08.539Z,4.50
2023-03-07T18:17:47.196Z,3.92
2023-03-07T18:20:18.986Z,4.74
2023-03-07T18:22:46.927Z,4.73
2023-03-07T18:25:16.723Z,4.68
2023-03-07T18:27:45.251Z,5.11
2023-03-07T18:30:14.428Z,3.22
2023-03-07T18:32:42.400Z,4.34
2023-03-07T18:35:11.348Z,4.59
2023-03-07T18:37:40.484Z,4.64
2023-03-07T18:40:09.571Z,4.07
2023-03-07T18:42:39.080Z,4.68
2023-03-07T18:45:08.172Z,4.54
2023-03-07T18:47:35.909Z,4.55
2023-03-07T18:50:03.766Z,4.39
2023-03-07T18:52:31.500Z,4.53
2023-03-07T18:55:00.641Z,4.81
2023-03-07T18:57:28.332Z,5.00
2023-03-07T18:59:56.074Z,4.19
2023-03-07T19:02:23.938Z,4.13
2023-03-07T19:04:51.757Z,3.50
2023-03-07T19:07:19.492Z,2.34
2023-03-07T19:09:53.207Z,2.49
2023-03-07T19:12:22.415Z,2.26
2023-03-07T19:14:50.204Z,4.06
2023-03-07T19:17:17.984Z,3.82
2023-03-07T19:19:46.852Z,4.31
2023-03-07T19:22:14.693Z,4.03
2023-03-07T19:24:43.348Z,3.94
2023-03-07T19:27:11.170Z,3.93
2023-03-07T19:29:40.316Z,3.66
2023-03-07T19:32:08.448Z,3.60
2023-03-07T19:34:36.257Z,4.02
2023-03-07T19:37:04.040Z,4.21
2023-03-07T19:39:31.892Z,3.70
2023-03-07T19:41:59.669Z,3.87
2023-03-07T19:44:27.445Z,2.70
2023-03-07T19:46:56.685Z,2.60
2023-03-07T19:49:26.501Z,3.77
2023-03-07T19:51:54.226Z,3.37
2023-03-07T19:54:22.598Z,3.45
2023-03-07T19:56:50.534Z,2.06
2023-03-07T19:59:18.416Z,2.59
2023-03-07T20:01:46.451Z,3.08
2023-03-07T20:04:17.312Z,2.51
2023-03-07T20:06:45.552Z,3.21
2023-03-07T20:09:14.152Z,4.17
2023-03-07T20:11:43.223Z,4.23
2023-03-07T20:14:12.473Z,4.35
2023-03-07T20:16:40.331Z,2.91
2023-03-07T20:19:10.071Z,2.84
2023-03-07T20:21:40.227Z,2.79
2023-03-07T20:24:09.214Z,3.55
2023-03-07T20:26:39.000Z,3.19
2023-03-07T20:29:08.544Z,3.91
2023-03-07T20:31:36.773Z,3.42
2023-03-07T20:34:04.752Z,3.90
2023-03-07T20:36:34.363Z,3.62
2023-03-07T20:39:05.409Z,3.58
2023-03-07T20:41:33.730Z,3.61
2023-03-07T20:44:03.490Z,2.51
2023-03-07T20:46:32.399Z,2.12
2023-03-07T20:49:02.166Z,2.43
2023-03-07T20:51:31.392Z,3.86
2023-03-07T20:54:00.467Z,2.23
2023-03-07T20:56:31.685Z,2.28
2023-03-07T20:58:59.844Z,2.41
2023-03-07T21:01:30.183Z,2.24
2023-03-07T21:04:03.891Z,2.34
2023-03-07T21:06:31.728Z,3.59
2023-03-07T21:09:00.427Z,2.67
2023-03-07T21:11:31.406Z,2.42
2023-03-07T21:13:59.301Z,3.25
2023-03-07T21:16:28.110Z,2.24
2023-03-07T21:19:01.284Z,3.00
2023-03-07T21:21:30.536Z,2.11
2023-03-07T21:23:58.443Z,2.21
2023-03-07T21:26:28.398Z,3.48
2023-03-07T21:28:58.384Z,2.48
2023-03-07T21:31:28.539Z,2.41
2023-03-07T21:33:57.885Z,2.36
2023-03-07T21:36:31.280Z,2.36
2023-03-07T21:39:00.518Z,3.80
2023-03-07T21:41:30.207Z,2.66
2023-03-07T21:43:59.723Z,2.23
2023-03-07T21:46:27.924Z,2.47
2023-03-07T21:48:55.784Z,3.37
2023-03-07T21:51:23.833Z,3.05
2023-03-07T21:53:51.691Z,2.35
2023-03-07T21:56:19.510Z,1.97
2023-03-07T21:58:49.550Z,3.04
2023-03-07T22:01:20.828Z,2.51
2023-03-07T22:03:48.944Z,2.41
2023-03-07T22:06:17.096Z,2.05
2023-03-07T22:08:46.089Z,2.45
2023-03-07T22:11:14.095Z,2.14
2023-03-07T22:13:43.020Z,2.17
2023-03-07T22:16:13.764Z,1.98
2023-03-07T22:18:43.152Z,1.99
2023-03-07T22:21:13.590Z,2.72
2023-03-07T22:23:41.924Z,2.44
2023-03-07T22:26:11.523Z,3.61
2023-03-07T22:28:40.599Z,1.97
2023-03-07T22:31:10.762Z,1.93
2023-03-07T22:33:38.653Z,2.06
2023-03-07T22:36:10.037Z,2.06
2023-03-07T22:38:37.819Z,2.13
2023-03-07T22:41:08.223Z,3.09
2023-03-07T22:43:36.933Z,3.37
2023-03-07T22:46:05.753Z,2.32
2023-03-07T22:48:34.254Z,1.91
2023-03-07T22:51:02.333Z,1.91
2023-03-07T22:53:33.196Z,1.81
2023-03-07T22:56:01.637Z,1.49
2023-03-07T22:58:30.405Z,3.13
2023-03-07T23:00:58.223Z,2.02
2023-03-07T23:03:26.100Z,3.00
2023-03-07T23:05:53.849Z,3.11
2023-03-07T23:08:21.724Z,2.77
2023-03-07T23:10:50.831Z,2.99
2023-03-07T23:13:18.618Z,3.08
2023-03-07T23:15:46.433Z,3.19
2023-03-07T23:18:14.167Z,2.96
2023-03-07T23:20:41.953Z,3.41
2023-03-07T23:23:09.768Z,3.06
2023-03-07T23:25:42.143Z,3.47
2023-03-07T23:28:11.844Z,2.21
2023-03-07T23:30:41.069Z,2.58
2023-03-07T23:33:08.987Z,2.26
2023-03-07T23:35:37.279Z,2.67
2023-03-07T23:38:05.513Z,3.30
2023-03-07T23:40:36.005Z,3.41
2023-03-07T23:43:05.605Z,2.06
2023-03-07T23:45:34.797Z,2.21
2023-03-07T23:48:02.545Z,2.18
2023-03-07T23:50:30.289Z,2.12
2023-03-07T23:52:58.073Z,3.42
2023-03-07T23:55:25.804Z,3.95
2023-03-07T23:57:53.579Z,3.45
